Time;durP1;ratioP1;P1;durP2;ratioP2;P2;SDS_P1;SDS_P2;PMS_P1;PMS_P2;Temp;Humidity;BMP_temperature;BMP_pressure;BME280_temperature;BME280_humidity;BME280_pressure;Samples;Min_cycle;Max_cycle;Signal;HPM_P1;HPM_P2
2023/01/25 00:00:07;;;;;;;;;;;;;;;2.03;74.78;99670.28;4901878;29;19935;-79
2023/01/25 00:02:34;;;;;;;;;;;;;;;2.22;74.63;99667.72;4878785;29;19927;-75
2023/01/25 00:05:03;;;;;;;;;;;;;;;2.15;74.37;99674.97;4878568;29;19932;-74
2023/01/25 00:07:31;;;;;;;;;;;;;;;2.03;73.77;99670.28;4878257;29;19932;-80
2023/01/25 00:09:58;;;;;;;;;;;;;;;1.90;74.59;99673.00;4892489;29;19956;-80
2023/01/25 00:12:28;;;;;;;;;;;;;;;1.97;74.69;99671.13;4863384;29;20296;-74
2023/01/25 00:14:56;;;;;;;;;;;;;;;1.96;74.71;99669.47;4869850;29;19935;-74
2023/01/25 00:17:24;;;;;;;;;;;;;;;1.96;74.45;99674.81;4879830;29;19927;-76
2023/01/25 00:19:52;;;;;;;;;;;;;;;1.70;74.84;99665.00;4880141;29;19935;-76
2023/01/25 00:22:44;;;;;;;;;;;;;;;1.70;75.22;99669.56;4860390;29;19976;-74
2023/01/25 00:25:15;;;;;;;;;;;;;;;1.92;75.24;99672.78;4877859;29;19927;-74
2023/01/25 00:27:45;;;;;;;;;;;;;;;1.86;74.99;99673.63;4870589;29;19936;-74
2023/01/25 00:30:15;;;;;;;;;;;;;;;1.79;74.71;99668.31;4874169;29;19932;-74
2023/01/25 00:32:49;;;;;;;;;;;;;;;1.83;74.32;99667.66;4870872;29;20018;-74
2023/01/25 00:35:42;;;;;;;;;;;;;;;1.71;74.55;99666.69;4856970;29;19943;-74
2023/01/25 00:38:17;;;;;;;;;;;;;;;1.58;75.49;99664.84;4867387;29;19935;-75
2023/01/25 00:40:45;;;;;;;;;;;;;;;1.67;75.41;99664.63;4873755;29;19928;-75
2023/01/25 00:43:14;;;;;;;;;;;;;;;1.74;75.36;99660.06;4872058;29;20380;-76
2023/01/25 00:45:41;;;;;;;;;;;;;;;1.62;75.52;99659.91;4864197;29;19932;-74
2023/01/25 00:48:12;;;;;;;;;;;;;;;1.53;75.75;99659.28;4867719;29;19940;-75
2023/01/25 00:50:40;;;;;;;;;;;;;;;1.53;75.67;99653.13;4872782;29;20291;-80
2023/01/25 00:53:08;;;;;;;;;;;;;;;1.66;75.42;99658.47;4881537;29;19935;-80
2023/01/25 00:58:34;;;;;;;;;;;;;;;1.76;75.10;99649.97;4878362;29;20380;-79
2023/01/25 01:01:07;;;;;;;;;;;;;;;1.94;74.39;99643.94;4880436;29;20471;-79
2023/01/25 01:03:35;;;;;;;;;;;;;;;1.95;74.10;99643.69;4875774;29;19990;-80
2023/01/25 01:06:03;;;;;;;;;;;;;;;1.81;74.32;99645.63;4881393;29;19928;-75
2023/01/25 01:08:31;;;;;;;;;;;;;;;1.82;74.88;99646.44;4864796;29;20015;-76
2023/01/25 01:11:00;;;;;;;;;;;;;;;1.80;74.05;99648.50;4870808;29;20419;-75
2023/01/25 01:13:28;;;;;;;;;;;;;;;1.69;74.79;99641.13;4868323;29;19927;-75
2023/01/25 01:16:01;;;;;;;;;;;;;;;1.90;74.55;99648.06;4858712;29;19943;-75
2023/01/25 01:18:33;;;;;;;;;;;;;;;1.95;73.98;99641.03;4871543;29;19951;-75
2023/01/25 01:21:01;;;;;;;;;;;;;;;1.77;74.07;99649.75;4871288;29;19932;-73
2023/01/25 01:23:30;;;;;;;;;;;;;;;1.71;74.09;99644.44;4885570;29;19927;-73
2023/01/25 01:25:59;;;;;;;;;;;;;;;1.73;74.60;99645.03;4875379;29;19927;-72
2023/01/25 01:28:28;;;;;;;;;;;;;;;1.64;75.36;99639.06;4871621;29;19942;-73
2023/01/25 01:31:05;;;;;;;;;;;;;;;1.69;74.68;99647.28;4876395;29;20296;-76
2023/01/25 01:33:43;;;;;;;;;;;;;;;1.66;74.92;99646.91;4861378;29;20394;-76
2023/01/25 01:36:11;;;;;;;;;;;;;;;1.67;75.21;99643.19;4869472;29;19928;-76
2023/01/25 01:38:40;;;;;;;;;;;;;;;1.70;75.16;99640.09;4863497;29;20002;-76
2023/01/25 01:41:08;;;;;;;;;;;;;;;1.82;74.47;99641.91;4870173;29;19928;-76
2023/01/25 01:43:39;;;;;;;;;;;;;;;1.66;74.54;99649.59;4862558;29;19976;-76
2023/01/25 01:46:11;;;;;;;;;;;;;;;1.58;74.99;99640.75;4872771;29;20023;-78
2023/01/25 02:00:18;;;;;;;;;;;;;;;1.40;76.28;99642.44;5948483;23;19922;-77
2023/01/25 02:02:48;;;;;;;;;;;;;;;1.40;75.67;99637.09;4887010;29;19927;-74
2023/01/25 02:05:17;;;;;;;;;;;;;;;1.48;75.63;99644.88;4890142;29;19935;-74
2023/01/25 02:07:45;;;;;;;;;;;;;;;1.55;75.67;99635.81;4887482;29;19931;-77
2023/01/25 02:10:13;;;;;;;;;;;;;;;1.52;75.26;99638.91;4879570;29;19928;-78
2023/01/25 02:12:44;;;;;;;;;;;;;;;1.63;74.97;99647.31;4895927;29;19934;-79
2023/01/25 02:15:13;;;;;;;;;;;;;;;1.66;75.17;99646.91;4887252;29;19928;-72
2023/01/25 02:20:36;;;;;;;;;;;;;;;1.66;75.48;99641.56;4900459;29;20351;-78
2023/01/25 02:23:06;;;;;;;;;;;;;;;1.73;74.71;99634.31;4900462;29;19931;-78
2023/01/25 02:25:36;;;;;;;;;;;;;;;1.58;74.79;99639.91;4882401;29;20383;-73
2023/01/25 02:28:06;;;;;;;;;;;;;;;1.42;75.17;99632.34;4878800;29;20346;-74
2023/01/25 02:30:34;;;;;;;;;;;;;;;1.42;75.17;99635.84;4888824;29;19982;-72
2023/01/25 02:33:02;;;;;;;;;;;;;;;1.41;75.12;99634.19;4888077;29;19927;-72
2023/01/25 02:35:38;;;;;;;;;;;;;;;1.58;75.17;99627.34;4878748;29;19931;-72
2023/01/25 02:38:06;;;;;;;;;;;;;;;1.52;75.16;99636.22;4878674;29;19927;-72
2023/01/25 02:40:36;;;;;;;;;;;;;;;1.60;74.80;99637.03;4896148;29;20674;-75
2023/01/25 02:43:04;;;;;;;;;;;;;;;1.51;74.79;99641.81;4898901;29;19951;-74
2023/01/25 02:48:27;;;;;;;;;;;;;;;1.48;75.07;99640.34;4884886;29;19927;-74
2023/01/25 02:50:55;;;;;;;;;;;;;;;1.52;74.89;99636.22;4906091;29;19935;-74
2023/01/25 02:53:24;;;;;;;;;;;;;;;1.72;74.26;99635.34;4886687;29;19979;-74
2023/01/25 03:01:52;;;;;;;;;;;;;;;1.64;74.67;99632.91;5248568;23;19974;-73
2023/01/25 03:04:23;;;;;;;;;;;;;;;1.46;74.15;99630.91;4899043;29;19927;-73
2023/01/25 03:06:53;;;;;;;;;;;;;;;1.62;73.89;99625.06;4900809;29;20009;-73
2023/01/25 03:09:21;;;;;;;;;;;;;;;1.62;73.68;99629.63;4916084;29;19966;-73
2023/01/25 03:11:50;;;;;;;;;;;;;;;1.48;74.46;99623.47;4890167;29;20318;-74
2023/01/25 03:14:21;;;;;;;;;;;;;;;1.40;74.41;99624.53;4901471;29;19927;-75
2023/01/25 03:16:50;;;;;;;;;;;;;;;1.48;74.46;99618.94;4900673;29;20001;-77
2023/01/25 03:19:23;;;;;;;;;;;;;;;1.31;74.28;99612.38;4898869;29;20021;-77
2023/01/25 03:21:51;;;;;;;;;;;;;;;1.25;75.00;99613.22;4913991;29;20298;-76
2023/01/25 03:24:19;;;;;;;;;;;;;;;1.30;74.98;99608.06;4891932;29;19975;-74
2023/01/25 03:29:51;;;;;;;;;;;;;;;1.33;74.39;99614.84;4859074;29;19935;-75
2023/01/25 03:32:22;;;;;;;;;;;;;;;1.48;74.86;99613.56;4901038;29;19927;-74
2023/01/25 03:34:53;;;;;;;;;;;;;;;1.55;73.89;99614.38;4898667;29;19970;-74
2023/01/25 03:37:21;;;;;;;;;;;;;;;1.58;73.72;99600.56;4909007;29;20394;-73
2023/01/25 03:39:50;;;;;;;;;;;;;;;1.45;74.25;99610.50;4896963;29;19935;-74
2023/01/25 03:42:20;;;;;;;;;;;;;;;1.48;73.72;99602.84;4915375;29;19931;-74
2023/01/25 03:44:52;;;;;;;;;;;;;;;1.23;75.08;99593.88;4913041;29;19927;-75
2023/01/25 03:50:14;;;;;;;;;;;;;;;1.40;74.15;99592.38;4910125;29;19927;-75
2023/01/25 04:01:31;;;;;;;;;;;;;;;1.33;75.23;99596.09;5389846;23;19927;-73
2023/01/25 04:04:00;;;;;;;;;;;;;;;1.30;75.33;99590.16;4916366;29;20322;-73
2023/01/25 04:06:29;;;;;;;;;;;;;;;1.36;75.21;99588.47;4918070;29;20018;-74
2023/01/25 04:08:57;;;;;;;;;;;;;;;1.17;76.08;99586.66;4906670;29;20382;-73
2023/01/25 04:11:52;;;;;;;;;;;;;;;1.15;75.98;99581.53;4906915;29;19934;-75
2023/01/25 04:14:21;;;;;;;;;;;;;;;1.34;76.18;99569.13;4910996;29;19927;-74
2023/01/25 04:17:07;;;;;;;;;;;;;;;1.25;76.35;99576.56;4928129;29;20622;-75
2023/01/25 04:19:58;;;;;;;;;;;;;;;1.06;77.24;99569.38;4921158;29;19935;-74
2023/01/25 04:22:53;;;;;;;;;;;;;;;0.95;77.29;99570.84;4918399;29;20014;-73
2023/01/25 04:25:25;;;;;;;;;;;;;;;1.16;76.92;99560.94;4899890;29;19927;-74
2023/01/25 04:27:58;;;;;;;;;;;;;;;1.30;76.36;99562.53;4900406;29;19962;-74
2023/01/25 04:30:27;;;;;;;;;;;;;;;1.43;75.96;99556.31;4899072;29;19943;-74
2023/01/25 04:32:56;;;;;;;;;;;;;;;1.50;75.91;99554.44;4920380;29;20450;-73
2023/01/25 04:35:55;;;;;;;;;;;;;;;1.39;75.16;99555.13;4898786;29;19962;-74
2023/01/25 04:38:25;;;;;;;;;;;;;;;1.41;75.15;99536.97;4904733;29;19931;-74
2023/01/25 04:40:54;;;;;;;;;;;;;;;1.44;74.70;99539.19;4909414;29;19928;-72
2023/01/25 04:43:25;;;;;;;;;;;;;;;1.48;74.48;99538.56;4895126;29;19927;-72
2023/01/25 04:45:57;;;;;;;;;;;;;;;1.25;74.16;99533.72;4912997;29;19927;-72
2023/01/25 04:48:30;;;;;;;;;;;;;;;0.99;75.29;99534.63;4926812;29;19927;-72
2023/01/25 04:51:01;;;;;;;;;;;;;;;1.11;74.53;99524.06;4921012;29;19931;-77
2023/01/25 04:53:32;;;;;;;;;;;;;;;1.09;74.92;99520.81;4918989;29;19933;-77
2023/01/25 04:58:55;;;;;;;;;;;;;;;1.29;74.41;99518.06;4928539;29;20005;-79
2023/01/25 05:01:24;;;;;;;;;;;;;;;1.25;74.35;99530.22;4907410;29;19927;-76
2023/01/25 05:03:52;;;;;;;;;;;;;;;1.04;74.59;99526.78;4903261;29;20383;-77
2023/01/25 05:06:31;;;;;;;;;;;;;;;1.11;74.37;99515.22;4898337;29;19952;-74
2023/01/25 05:09:01;;;;;;;;;;;;;;;0.96;74.32;99518.16;4892911;29;19931;-74
2023/01/25 05:14:31;;;;;;;;;;;;;;;0.93;74.39;99505.19;4890104;29;22385;-74
2023/01/25 05:17:00;;;;;;;;;;;;;;;0.98;74.67;99516.91;4899448;29;20391;-74
2023/01/25 05:19:30;;;;;;;;;;;;;;;1.11;74.26;99508.03;4898052;29;19931;-74
2023/01/25 05:22:06;;;;;;;;;;;;;;;0.98;74.31;99508.06;4903349;29;20302;-75
2023/01/25 05:24:43;;;;;;;;;;;;;;;1.20;74.18;99511.28;4896487;29;20013;-76
2023/01/25 05:27:13;;;;;;;;;;;;;;;1.19;74.26;99515.84;4896803;29;19934;-75
2023/01/25 05:30:06;;;;;;;;;;;;;;;0.98;74.42;99514.25;4887131;29;20030;-75
2023/01/25 05:32:48;;;;;;;;;;;;;;;1.11;74.26;99510.69;4877512;29;19990;-75
2023/01/25 05:35:17;;;;;;;;;;;;;;;1.11;74.42;99510.69;4895826;29;19995;-75
2023/01/25 05:37:47;;;;;;;;;;;;;;;0.95;75.05;99511.97;4911722;29;19928;-76
2023/01/25 05:40:22;;;;;;;;;;;;;;;1.02;74.04;99510.13;4900048;29;19935;-76
2023/01/25 05:42:55;;;;;;;;;;;;;;;1.05;74.22;99508.88;4896351;29;19932;-76
2023/01/25 05:45:24;;;;;;;;;;;;;;;1.08;73.81;99515.66;4899833;29;20394;-75
2023/01/25 05:47:55;;;;;;;;;;;;;;;1.20;73.88;99513.97;4898816;29;19927;-76
2023/01/25 05:50:23;;;;;;;;;;;;;;;1.29;73.52;99510.03;4884630;29;19968;-77
2023/01/25 05:53:01;;;;;;;;;;;;;;;1.16;73.52;99512.75;4911406;29;19927;-76
2023/01/25 05:55:31;;;;;;;;;;;;;;;1.38;73.35;99507.91;4886002;29;19927;-73
2023/01/25 05:58:04;;;;;;;;;;;;;;;1.37;73.37;99520.50;4877045;29;19938;-73
2023/01/25 06:00:33;;;;;;;;;;;;;;;1.03;74.12;99511.75;4891138;29;19927;-72
2023/01/25 06:03:02;;;;;;;;;;;;;;;1.08;73.88;99516.50;4900784;29;19973;-72
2023/01/25 06:05:32;;;;;;;;;;;;;;;1.05;73.88;99508.88;4897223;29;19927;-73
2023/01/25 06:08:00;;;;;;;;;;;;;;;1.07;74.24;99503.31;4910961;29;19934;-72
2023/01/25 06:10:42;;;;;;;;;;;;;;;0.98;74.89;99506.22;4908919;29;19934;-73
2023/01/25 06:13:11;;;;;;;;;;;;;;;1.16;74.32;99510.06;4897397;29;19931;-73
2023/01/25 06:15:41;;;;;;;;;;;;;;;1.05;74.57;99501.66;4912483;29;20026;-73
2023/01/25 06:18:39;;;;;;;;;;;;;;;1.07;74.71;99504.13;4914065;29;19927;-73
2023/01/25 06:21:39;;;;;;;;;;;;;;;1.03;75.44;99503.72;4906281;29;19935;-79
2023/01/25 06:24:11;;;;;;;;;;;;;;;1.11;74.55;99499.16;4921834;29;19933;-79
2023/01/25 06:35:39;;;;;;;;;;;;;;;1.46;74.06;99494.31;5821533;23;19933;-79
2023/01/25 06:38:08;;;;;;;;;;;;;;;1.17;74.81;99495.66;4888421;29;19919;-79
2023/01/25 06:40:37;;;;;;;;;;;;;;;1.33;74.35;99502.38;5471740;23;21338;-77
2023/01/25 06:43:06;;;;;;;;;;;;;;;1.59;73.22;99496.91;4898653;29;20291;-77
2023/01/25 06:45:34;;;;;;;;;;;;;;;1.29;74.34;99497.47;4913996;29;20288;-76
2023/01/25 06:48:04;;;;;;;;;;;;;;;1.08;75.03;99499.59;4907636;29;19927;-79
2023/01/25 06:50:35;;;;;;;;;;;;;;;0.94;75.04;99499.63;4899422;29;20414;-76
2023/01/25 06:53:03;;;;;;;;;;;;;;;0.82;75.52;99498.63;4918137;29;19927;-76
2023/01/25 06:55:31;;;;;;;;;;;;;;;1.04;75.52;99499.19;4917340;29;19966;-79
2023/01/25 06:58:00;;;;;;;;;;;;;;;1.17;75.10;99495.66;4923998;29;19931;-78
2023/01/25 07:00:28;;;;;;;;;;;;;;;1.22;74.04;99490.47;4921969;29;19962;-79
2023/01/25 07:02:58;;;;;;;;;;;;;;;1.11;73.89;99491.97;4912354;29;19927;-75
2023/01/25 07:05:26;;;;;;;;;;;;;;;1.19;73.55;99491.75;4915893;29;19933;-77
2023/01/25 07:07:55;;;;;;;;;;;;;;;1.04;74.62;99485.81;4918346;29;19942;-79
2023/01/25 07:10:23;;;;;;;;;;;;;;;1.23;73.93;99490.28;4909876;29;19966;-78
2023/01/25 07:12:51;;;;;;;;;;;;;;;1.11;73.90;99488.47;4925748;28;19931;-79
2023/01/25 07:15:47;;;;;;;;;;;;;;;1.00;74.59;99489.94;5110340;23;20979;31
2023/01/25 07:18:22;;;;;;;;;;;;;;;1.35;73.71;99489.63;4870944;29;19929;-78
2023/01/25 07:20:50;;;;;;;;;;;;;;;1.49;73.34;99491.19;4861253;29;19932;-76
2023/01/25 07:23:19;;;;;;;;;;;;;;;1.63;72.43;99482.06;4858534;29;19964;-77
2023/01/25 07:25:49;;;;;;;;;;;;;;;1.38;73.39;99489.19;4859363;29;19932;-79
2023/01/25 07:28:18;;;;;;;;;;;;;;;1.46;73.82;99492.44;4868551;29;20010;-75
2023/01/25 07:33:39;;;;;;;;;;;;;;;1.26;74.09;99492.53;4892890;29;20277;-74
2023/01/25 07:36:09;;;;;;;;;;;;;;;1.14;73.76;99494.22;4905174;29;20010;-76
2023/01/25 07:38:39;;;;;;;;;;;;;;;1.38;73.35;99491.84;4898729;29;19938;-76
2023/01/25 07:41:07;;;;;;;;;;;;;;;1.40;73.38;99490.63;4897957;29;19942;-76
2023/01/25 07:43:36;;;;;;;;;;;;;;;1.26;72.75;99479.13;4894254;29;19938;-76
2023/01/25 07:46:05;;;;;;;;;;;;;;;1.24;73.33;99488.44;4875470;29;19927;-74
2023/01/25 07:48:34;;;;;;;;;;;;;;;1.15;73.39;99478.97;4900967;29;19931;-74
2023/01/25 07:51:11;;;;;;;;;;;;;;;1.30;74.00;99485.72;4872754;29;19928;-74
2023/01/25 07:53:42;;;;;;;;;;;;;;;1.12;73.74;99482.91;4882775;29;20391;-73
2023/01/25 07:59:03;;;;;;;;;;;;;;;1.42;73.07;99479.69;4904764;29;19931;-76
2023/01/25 08:01:33;;;;;;;;;;;;;;;1.57;72.83;99475.69;4888373;29;19935;-76
2023/01/25 08:04:01;;;;;;;;;;;;;;;1.63;72.16;99490.09;4899611;29;19936;-76
2023/01/25 08:06:34;;;;;;;;;;;;;;;1.16;73.16;99494.00;4898375;29;19991;-75
2023/01/25 08:09:04;;;;;;;;;;;;;;;1.19;72.74;99490.91;4900476;29;19991;-74
2023/01/25 08:11:32;;;;;;;;;;;;;;;1.31;72.87;99495.38;4894909;29;19928;-75
2023/01/25 08:14:00;;;;;;;;;;;;;;;1.35;72.77;99492.31;4893277;29;19927;-78
2023/01/25 08:16:28;;;;;;;;;;;;;;;1.27;72.68;99490.66;4883426;29;19984;-74
2023/01/25 08:18:57;;;;;;;;;;;;;;;1.47;71.90;99494.09;4896903;29;19931;-72
2023/01/25 08:21:28;;;;;;;;;;;;;;;1.50;72.27;99490.16;4881814;29;19933;-74
2023/01/25 08:23:57;;;;;;;;;;;;;;;1.47;71.00;99494.09;4896165;29;20315;-77
2023/01/25 08:26:31;;;;;;;;;;;;;;;1.32;72.06;99493.53;4942989;23;19927;-79
2023/01/25 08:29:05;;;;;;;;;;;;;;;1.13;72.41;99487.22;4878456;29;20006;-77
2023/01/25 08:31:34;;;;;;;;;;;;;;;1.20;72.28;99488.03;4896338;29;19963;-79
2023/01/25 08:34:02;;;;;;;;;;;;;;;1.10;72.78;99494.84;4895236;29;19980;-78
2023/01/25 08:36:30;;;;;;;;;;;;;;;0.98;72.84;99484.81;4880183;29;19927;-75
2023/01/25 08:38:59;;;;;;;;;;;;;;;1.08;73.00;99488.91;4889198;29;19974;-75
2023/01/25 08:41:28;;;;;;;;;;;;;;;1.15;72.57;99489.69;4881676;29;19959;-75
2023/01/25 08:44:00;;;;;;;;;;;;;;;0.89;73.51;99486.06;4884066;29;20112;-75
2023/01/25 08:46:28;;;;;;;;;;;;;;;1.05;73.00;99482.91;4895961;29;19928;-75
2023/01/25 08:48:58;;;;;;;;;;;;;;;1.06;72.75;99481.06;4881183;29;19947;-75
2023/01/25 08:51:57;;;;;;;;;;;;;;;1.09;72.71;99482.50;4890360;29;20408;-75
2023/01/25 08:54:26;;;;;;;;;;;;;;;1.22;72.45;99477.09;4880709;29;19935;-75
2023/01/25 08:56:54;;;;;;;;;;;;;;;0.83;73.97;99470.03;4896342;29;19932;-75
2023/01/25 08:59:24;;;;;;;;;;;;;;;1.17;72.92;99471.56;4898052;29;19978;-75
2023/01/25 09:01:52;;;;;;;;;;;;;;;1.09;72.90;99469.13;4897784;29;22071;-75
2023/01/25 09:04:20;;;;;;;;;;;;;;;1.00;72.97;99465.84;4891836;29;20352;-75
2023/01/25 09:07:13;;;;;;;;;;;;;;;1.26;72.02;99471.09;4886306;29;19932;-75
2023/01/25 09:09:41;;;;;;;;;;;;;;;1.09;73.18;99469.94;4887868;29;19957;-75
2023/01/25 09:12:09;;;;;;;;;;;;;;;1.27;72.46;99462.03;4899670;29;19932;-76
2023/01/25 09:14:39;;;;;;;;;;;;;;;0.94;73.29;99451.47;4881857;29;20470;-75
2023/01/25 09:19:58;;;;;;;;;;;;;;;0.93;72.75;99457.84;4881552;29;19987;-75
2023/01/25 09:22:51;;;;;;;;;;;;;;;1.30;72.32;99455.44;4886952;29;20026;-75
2023/01/25 09:25:19;;;;;;;;;;;;;;;1.31;72.16;99455.22;4884791;29;20295;-76
2023/01/25 09:27:48;;;;;;;;;;;;;;;1.20;72.21;99458.56;4888800;29;20394;-75
2023/01/25 09:30:18;;;;;;;;;;;;;;;1.20;71.87;99457.75;4892287;29;19972;-75
2023/01/25 09:32:52;;;;;;;;;;;;;;;1.46;71.76;99454.94;4889496;29;20018;-75
2023/01/25 09:35:20;;;;;;;;;;;;;;;1.50;71.74;99455.34;4884502;29;19927;-75
2023/01/25 09:37:50;;;;;;;;;;;;;;;1.54;71.22;99452.00;4885966;29;19928;-75
2023/01/25 09:40:19;;;;;;;;;;;;;;;1.46;71.32;99443.41;4880854;29;20431;-75
2023/01/25 09:42:51;;;;;;;;;;;;;;;1.38;72.08;99449.81;4882341;29;20002;-75
2023/01/25 09:45:23;;;;;;;;;;;;;;;1.47;71.05;99445.06;4893141;29;19927;-76
2023/01/25 09:47:54;;;;;;;;;;;;;;;1.36;72.14;99441.19;4888258;29;19928;-75
2023/01/25 09:50:27;;;;;;;;;;;;;;;1.40;71.66;99439.75;4883090;29;20336;-75
2023/01/25 09:53:10;;;;;;;;;;;;;;;1.54;71.12;99441.28;4893101;29;20302;-76
2023/01/25 09:55:38;;;;;;;;;;;;;;;1.61;71.51;99445.81;4885878;29;20003;-75
2023/01/25 09:58:55;;;;;;;;;;;;;;;1.31;71.99;99433.81;4888761;29;19991;-75
2023/01/25 10:01:27;;;;;;;;;;;;;;;1.27;71.77;99434.44;4882055;29;19939;-75
2023/01/25 10:04:07;;;;;;;;;;;;;;;1.61;71.22;99424.38;4890634;29;19939;-76
2023/01/25 10:06:38;;;;;;;;;;;;;;;1.30;71.56;99424.13;4887914;29;19946;-76
2023/01/25 10:09:11;;;;;;;;;;;;;;;1.35;71.96;99422.69;4889256;29;19938;-75
2023/01/25 10:11:39;;;;;;;;;;;;;;;1.39;71.59;99422.03;4883436;29;19932;-75
2023/01/25 10:14:11;;;;;;;;;;;;;;;1.46;71.38;99419.31;5066235;23;19935;-76
2023/01/25 10:16:43;;;;;;;;;;;;;;;1.48;71.42;99411.88;4916263;29;20120;-76
2023/01/25 10:19:14;;;;;;;;;;;;;;;1.28;71.85;99420.03;4928476;29;19934;-75
2023/01/25 10:21:42;;;;;;;;;;;;;;;1.50;71.77;99417.84;4909249;29;19959;-75
2023/01/25 10:24:14;;;;;;;;;;;;;;;1.29;72.09;99416.31;4904747;29;19938;-75
2023/01/25 10:29:39;;;;;;;;;;;;;;;1.37;72.11;99413.38;4906959;29;20350;-75
2023/01/25 10:32:13;;;;;;;;;;;;;;;1.44;71.69;99418.69;4894760;29;19935;-76
2023/01/25 10:34:43;;;;;;;;;;;;;;;1.30;72.44;99416.09;4912617;29;19931;-76
2023/01/25 10:37:24;;;;;;;;;;;;;;;1.52;71.68;99411.22;4911608;29;19931;-76
2023/01/25 10:39:54;;;;;;;;;;;;;;;1.64;71.21;99416.72;4895288;29;19927;-75
2023/01/25 10:42:25;;;;;;;;;;;;;;;1.74;70.99;99406.34;4912637;29;19933;-77
2023/01/25 10:44:52;;;;;;;;;;;;;;;1.78;71.13;99410.22;4910217;29;20375;-76
2023/01/25 10:47:23;;;;;;;;;;;;;;;1.37;72.21;99405.34;4913184;29;19933;-75
2023/01/25 10:49:52;;;;;;;;;;;;;;;1.52;71.52;99400.53;4914347;29;19934;-76
2023/01/25 10:52:21;;;;;;;;;;;;;;;1.48;71.87;99393.94;4906245;29;20347;-74
2023/01/25 10:55:14;;;;;;;;;;;;;;;1.51;71.67;99390.84;4911971;29;19942;-74
2023/01/25 10:57:48;;;;;;;;;;;;;;;1.46;71.17;99379.97;4908247;29;20324;-75
2023/01/25 11:00:20;;;;;;;;;;;;;;;1.55;71.18;99373.31;4880551;29;19928;-75
2023/01/25 11:02:50;;;;;;;;;;;;;;;1.19;72.17;99362.44;4917270;29;20413;-74
2023/01/25 11:05:29;;;;;;;;;;;;;;;1.31;72.03;99356.16;4915198;29;19927;-73
2023/01/25 11:07:57;;;;;;;;;;;;;;;1.34;72.06;99359.47;4922493;29;19937;-75
2023/01/25 11:10:27;;;;;;;;;;;;;;;1.17;72.22;99354.63;4910450;29;19934;-74
2023/01/25 11:13:22;;;;;;;;;;;;;;;1.33;71.87;99353.25;4909719;29;19935;-74
2023/01/25 11:15:52;;;;;;;;;;;;;;;1.28;71.23;99351.25;4913821;29;19928;-74
2023/01/25 11:18:24;;;;;;;;;;;;;;;1.27;71.05;99343.41;4913267;29;19927;-74
2023/01/25 11:21:07;;;;;;;;;;;;;;;1.36;71.38;99335.94;4898025;29;19955;-73
2023/01/25 11:23:35;;;;;;;;;;;;;;;1.53;70.89;99342.41;4916905;29;20635;-74
2023/01/25 11:26:29;;;;;;;;;;;;;;;1.65;70.59;99326.44;4906023;29;20555;-74
2023/01/25 11:29:21;;;;;;;;;;;;;;;1.63;70.55;99326.69;4913626;29;20408;-74
2023/01/25 11:31:56;;;;;;;;;;;;;;;1.37;70.92;99333.06;4910942;29;19931;-71
2023/01/25 11:34:27;;;;;;;;;;;;;;;1.31;70.58;99329.38;4912589;29;19959;-71
2023/01/25 11:36:57;;;;;;;;;;;;;;;1.42;70.13;99325.19;4888611;29;19927;-76
2023/01/25 11:39:32;;;;;;;;;;;;;;;1.33;70.50;99325.66;4906073;29;19931;-76
2023/01/25 11:42:03;;;;;;;;;;;;;;;1.09;71.57;99317.38;4914840;29;20046;-78
2023/01/25 11:44:38;;;;;;;;;;;;;;;1.23;71.29;99305.56;4917733;29;19915;-75
2023/01/25 11:50:05;;;;;;;;;;;;;;;1.29;71.04;99293.16;4920963;29;19963;-78
2023/01/25 11:52:35;;;;;;;;;;;;;;;1.40;71.01;99288.97;4909990;29;19938;-77
2023/01/25 11:58:09;;;;;;;;;;;;;;;1.37;71.78;99281.34;4923337;29;19931;-76
2023/01/25 12:00:42;;;;;;;;;;;;;;;1.54;70.74;99277.91;4910106;29;19984;-76
2023/01/25 12:03:35;;;;;;;;;;;;;;;1.75;70.33;99275.88;4916321;29;19943;-76
2023/01/25 12:06:05;;;;;;;;;;;;;;;1.82;69.48;99271.28;4902693;29;19932;-75
2023/01/25 12:08:40;;;;;;;;;;;;;;;1.87;68.87;99262.59;4912420;29;19927;-76
2023/01/25 12:11:09;;;;;;;;;;;;;;;1.80;69.43;99260.78;4903520;29;19994;-76
2023/01/25 12:13:39;;;;;;;;;;;;;;;1.78;69.33;99254.81;4913169;29;19928;-76
2023/01/25 12:16:12;;;;;;;;;;;;;;;1.81;69.56;99249.03;4905222;29;20487;-75
2023/01/25 12:18:45;;;;;;;;;;;;;;;1.84;69.59;99235.19;4888026;29;19927;-75
2023/01/25 12:21:17;;;;;;;;;;;;;;;1.84;69.88;99229.00;4916825;29;19935;-81
2023/01/25 12:24:03;;;;;;;;;;;;;;;1.71;70.43;99221.13;4907687;29;19931;-80
2023/01/25 12:26:35;;;;;;;;;;;;;;;1.89;70.06;99221.13;4918720;29;20387;-77
2023/01/25 12:29:12;;;;;;;;;;;;;;;2.06;68.91;99207.94;4912025;29;19975;-78
2023/01/25 12:31:42;;;;;;;;;;;;;;;2.03;69.26;99198.50;4913943;29;19970;-77
2023/01/25 12:34:12;;;;;;;;;;;;;;;2.00;68.74;99188.22;4899375;29;20390;-77
2023/01/25 12:36:43;;;;;;;;;;;;;;;2.04;69.22;99188.59;4905168;29;19927;-80
2023/01/25 12:39:13;;;;;;;;;;;;;;;2.02;68.71;99180.75;4929948;29;19942;-79
2023/01/25 12:41:43;;;;;;;;;;;;;;;1.97;69.38;99177.94;4932766;29;19934;-80
2023/01/25 12:44:13;;;;;;;;;;;;;;;1.84;69.58;99168.19;4930635;29;19952;-79
2023/01/25 12:46:43;;;;;;;;;;;;;;;1.24;71.44;99161.81;4914665;29;20007;-80
2023/01/25 12:49:15;;;;;;;;;;;;;;;1.59;71.00;99159.41;4908333;29;20022;-80
2023/01/25 12:52:14;;;;;;;;;;;;;;;1.74;70.13;99154.50;4916203;29;19938;-75
2023/01/25 12:54:43;;;;;;;;;;;;;;;1.81;70.33;99146.38;4915293;29;19927;-75
2023/01/25 12:57:15;;;;;;;;;;;;;;;1.96;69.72;99141.44;4915361;29;19928;-75
2023/01/25 12:59:45;;;;;;;;;;;;;;;1.94;69.89;99146.22;4917616;29;20040;-74
2023/01/25 13:02:19;;;;;;;;;;;;;;;1.79;69.60;99138.56;4914185;29;20347;-77
2023/01/25 13:04:52;;;;;;;;;;;;;;;1.88;69.83;99131.06;4916159;29;20244;-77
2023/01/25 13:07:22;;;;;;;;;;;;;;;1.97;69.02;99129.72;4914225;29;19950;-75
2023/01/25 13:09:52;;;;;;;;;;;;;;;1.66;69.50;99124.53;4910662;29;20058;-75
2023/01/25 13:12:45;;;;;;;;;;;;;;;1.62;70.01;99124.13;4893234;29;19933;-75
2023/01/25 13:15:27;;;;;;;;;;;;;;;1.84;69.08;99128.00;4908803;29;19928;-74
2023/01/25 13:17:58;;;;;;;;;;;;;;;1.61;69.98;99127.06;4913636;29;19927;-75
2023/01/25 13:20:47;;;;;;;;;;;;;;;1.42;69.64;99120.84;4896853;29;19931;-79
2023/01/25 13:23:30;;;;;;;;;;;;;;;1.64;69.28;99123.91;4937875;29;19927;-80
2023/01/25 13:26:17;;;;;;;;;;;;;;;1.67;69.53;99129.66;4908239;29;19995;-77
2023/01/25 13:28:45;;;;;;;;;;;;;;;1.75;69.11;99123.16;4901111;29;19946;-77
2023/01/25 13:31:29;;;;;;;;;;;;;;;1.33;70.47;99122.19;4901533;29;19932;-75
2023/01/25 13:34:09;;;;;;;;;;;;;;;1.62;70.01;99116.09;4910017;29;19927;-74
2023/01/25 13:36:45;;;;;;;;;;;;;;;1.61;69.62;99108.31;4898754;29;19938;-75
2023/01/25 13:42:26;;;;;;;;;;;;;;;1.78;69.89;99109.31;4915815;29;19970;-77
2023/01/25 13:44:55;;;;;;;;;;;;;;;1.86;69.30;99102.81;4904749;29;20052;-77
2023/01/25 13:47:24;;;;;;;;;;;;;;;1.79;68.82;99089.53;4897229;29;19939;-74
2023/01/25 13:49:54;;;;;;;;;;;;;;;1.76;68.96;99095.34;4906185;29;19934;-74
2023/01/25 13:52:22;;;;;;;;;;;;;;;1.79;68.60;99086.84;4911401;29;20310;-72
2023/01/25 13:57:49;;;;;;;;;;;;;;;1.64;69.79;99067.66;4908494;29;19927;-76
2023/01/25 14:00:18;;;;;;;;;;;;;;;1.48;70.11;99069.09;4900159;29;21673;-71
2023/01/25 14:02:50;;;;;;;;;;;;;;;1.27;71.49;99065.81;4902770;29;19982;-72
2023/01/25 14:05:19;;;;;;;;;;;;;;;1.03;72.45;99070.19;4907043;29;19927;-71
2023/01/25 14:07:47;;;;;;;;;;;;;;;1.15;72.28;99066.78;4908829;29;19928;-71
2023/01/25 14:10:16;;;;;;;;;;;;;;;1.26;72.21;99060.69;4893974;29;19935;-72
2023/01/25 14:12:48;;;;;;;;;;;;;;;1.00;72.41;99053.75;4904118;29;21479;-71
2023/01/25 14:15:17;;;;;;;;;;;;;;;1.16;72.38;99058.50;4913063;29;19934;-71
2023/01/25 14:18:11;;;;;;;;;;;;;;;1.48;71.71;99063.72;4902108;29;19941;-71
2023/01/25 14:20:39;;;;;;;;;;;;;;;1.66;71.19;99057.56;4916823;29;20393;-71
2023/01/25 14:23:19;;;;;;;;;;;;;;;1.64;69.94;99062.31;4914173;29;19959;-71
2023/01/25 14:25:48;;;;;;;;;;;;;;;1.81;70.08;99055.28;4913652;29;19964;-80
2023/01/25 14:28:17;;;;;;;;;;;;;;;1.81;69.98;99068.66;4917742;29;19933;-76
2023/01/25 14:30:49;;;;;;;;;;;;;;;1.42;70.18;99067.31;4912493;29;19930;-80
2023/01/25 14:33:46;;;;;;;;;;;;;;;1.57;70.22;99065.88;4936000;29;19951;-79
2023/01/25 14:36:14;;;;;;;;;;;;;;;1.71;69.91;99065.72;4932938;29;19928;-80
2023/01/25 14:38:52;;;;;;;;;;;;;;;1.66;69.71;99058.38;4922350;29;19923;-77
2023/01/25 14:41:46;;;;;;;;;;;;;;;1.35;70.70;99059.34;4960478;23;19927;-78
2023/01/25 14:47:22;;;;;;;;;;;;;;;1.38;71.33;99052.72;4924902;29;20037;-80